Time;durP1;ratioP1;P1;durP2;ratioP2;P2;SDS_P1;SDS_P2;PMS_P1;PMS_P2;Temp;Humidity;BMP_temperature;BMP_pressure;BME280_temperature;BME280_humidity;BME280_pressure;Samples;Min_cycle;Max_cycle;Signal;HPM_P1;HPM_P2
2021/03/04 00:00:30;;;;;;;;;39.33;33.67;;;;;;;;5064105;27;114254;-72
2021/03/04 00:02:56;;;;;;;;;38.33;35.00;;;;;;;;5069252;27;112232;-72
2021/03/04 00:05:22;;;;;;;;;40.67;36.00;;;;;;;;5065678;27;114105;-74
2021/03/04 00:07:49;;;;;;;;;39.33;34.33;;;;;;;;5066789;27;114471;-73
2021/03/04 00:10:16;;;;;;;;;43.00;37.00;;;;;;;;5067325;27;112387;-73
2021/03/04 00:12:42;;;;;;;;;43.00;37.33;;;;;;;;5066546;27;113697;-72
2021/03/04 00:15:10;;;;;;;;;40.67;34.00;;;;;;;;5066962;27;114558;-73
2021/03/04 00:17:37;;;;;;;;;32.33;27.67;;;;;;;;5069364;27;111956;-73
2021/03/04 00:20:05;;;;;;;;;35.00;31.33;;;;;;;;5067065;27;114196;-73
2021/03/04 00:22:31;;;;;;;;;37.33;34.00;;;;;;;;5064725;27;112165;-73
2021/03/04 00:24:58;;;;;;;;;46.00;34.33;;;;;;;;5064445;27;113561;-73
2021/03/04 00:27:24;;;;;;;;;32.67;31.67;;;;;;;;5066728;27;114568;-73
2021/03/04 00:29:50;;;;;;;;;31.00;30.00;;;;;;;;5065952;27;112152;-74
2021/03/04 00:32:16;;;;;;;;;34.67;33.33;;;;;;;;5066389;27;113412;-74
2021/03/04 00:34:42;;;;;;;;;37.00;35.67;;;;;;;;5065592;27;114631;-74
2021/03/04 00:37:08;;;;;;;;;30.00;28.67;;;;;;;;5065267;27;112154;-74
2021/03/04 00:39:34;;;;;;;;;50.00;37.00;;;;;;;;5070487;27;114521;-74
2021/03/04 00:42:01;;;;;;;;;43.33;38.00;;;;;;;;5065317;27;111956;-74
2021/03/04 00:44:26;;;;;;;;;43.67;38.67;;;;;;;;5057659;27;112979;-75
2021/03/04 00:46:52;;;;;;;;;30.33;27.00;;;;;;;;5067327;27;113997;-75
2021/03/04 00:49:20;;;;;;;;;40.00;37.00;;;;;;;;5065475;27;112187;-75
2021/03/04 00:51:46;;;;;;;;;34.33;32.67;;;;;;;;5068762;27;113595;-75
2021/03/04 00:54:12;;;;;;;;;40.33;32.33;;;;;;;;5061948;27;113377;-75
2021/03/04 00:56:38;;;;;;;;;36.33;31.00;;;;;;;;5066604;27;112372;-75
2021/03/04 00:59:05;;;;;;;;;32.67;32.67;;;;;;;;5065659;27;113430;-75
2021/03/04 01:01:31;;;;;;;;;36.00;33.67;;;;;;;;5074644;27;114295;-76
2021/03/04 01:03:57;;;;;;;;;36.33;27.67;;;;;;;;5068349;27;113713;-75
2021/03/04 01:06:23;;;;;;;;;44.67;38.00;;;;;;;;5066438;27;114213;-75
2021/03/04 01:08:49;;;;;;;;;39.33;31.67;;;;;;;;5065724;27;112264;-75
2021/03/04 01:11:15;;;;;;;;;29.67;29.00;;;;;;;;5066759;27;113476;-75
2021/03/04 01:13:42;;;;;;;;;32.67;32.67;;;;;;;;5065629;27;114150;-75
2021/03/04 01:16:09;;;;;;;;;38.67;30.67;;;;;;;;5065126;27;112148;-75
2021/03/04 01:18:35;;;;;;;;;34.33;32.33;;;;;;;;5067730;27;113719;-75
2021/03/04 01:21:01;;;;;;;;;32.00;28.00;;;;;;;;5067944;27;114064;-75
2021/03/04 01:23:27;;;;;;;;;28.00;28.00;;;;;;;;5071591;27;111954;-75
2021/03/04 01:25:53;;;;;;;;;38.67;29.00;;;;;;;;5064150;27;113931;-75
2021/03/04 01:28:19;;;;;;;;;37.67;29.67;;;;;;;;5064815;27;111994;-75
2021/03/04 01:30:45;;;;;;;;;38.00;34.00;;;;;;;;5066507;27;113554;-75
2021/03/04 01:33:11;;;;;;;;;34.33;30.67;;;;;;;;5069818;27;114097;-75
2021/03/04 01:35:37;;;;;;;;;34.33;30.00;;;;;;;;5064895;27;111933;-75
2021/03/04 01:38:03;;;;;;;;;28.67;23.33;;;;;;;;5067550;27;113407;-75
2021/03/04 01:40:29;;;;;;;;;35.00;31.33;;;;;;;;5063975;27;114031;-75
2021/03/04 01:42:55;;;;;;;;;29.67;29.00;;;;;;;;5071389;27;112335;-74
2021/03/04 01:45:21;;;;;;;;;35.00;29.33;;;;;;;;5061591;27;113295;-74
2021/03/04 01:47:48;;;;;;;;;30.33;26.33;;;;;;;;5066297;27;112211;-74
2021/03/04 01:50:16;;;;;;;;;29.67;29.67;;;;;;;;5066225;27;113797;-74
2021/03/04 01:52:42;;;;;;;;;35.00;29.33;;;;;;;;5065435;27;114100;-74
2021/03/04 01:55:09;;;;;;;;;33.33;31.00;;;;;;;;5067295;27;111927;-74
2021/03/04 01:57:36;;;;;;;;;30.67;27.33;;;;;;;;5065590;27;113554;-74
2021/03/04 02:00:04;;;;;;;;;36.00;29.00;;;;;;;;5066254;27;114304;-73
2021/03/04 02:02:30;;;;;;;;;35.33;31.67;;;;;;;;5064664;27;112103;-74
2021/03/04 02:04:56;;;;;;;;;28.00;28.00;;;;;;;;5067111;27;113419;-73
2021/03/04 02:07:28;;;;;;;;;35.00;27.67;;;;;;;;5067189;27;113609;-74
2021/03/04 02:09:57;;;;;;;;;35.33;30.67;;;;;;;;5057506;27;112631;-74
2021/03/04 02:12:27;;;;;;;;;27.33;23.00;;;;;;;;5067167;27;114244;-74
2021/03/04 02:14:54;;;;;;;;;30.00;28.67;;;;;;;;5064655;27;112212;-74
2021/03/04 02:17:23;;;;;;;;;31.67;27.67;;;;;;;;5067436;27;114663;-74
2021/03/04 02:19:53;;;;;;;;;32.67;30.67;;;;;;;;5065001;27;115099;-74
2021/03/04 02:22:29;;;;;;;;;28.67;27.67;;;;;;;;5067435;27;112044;-74
2021/03/04 02:24:59;;;;;;;;;29.33;28.00;;;;;;;;5064538;27;113562;-74
2021/03/04 02:27:27;;;;;;;;;38.00;28.67;;;;;;;;5067578;27;114414;-74
2021/03/04 02:29:57;;;;;;;;;33.33;27.67;;;;;;;;5067977;27;113883;-74
2021/03/04 02:32:24;;;;;;;;;26.33;26.00;;;;;;;;5064527;27;114169;-73
2021/03/04 02:34:53;;;;;;;;;31.33;27.67;;;;;;;;5071277;27;114431;-74
2021/03/04 02:37:20;;;;;;;;;28.33;28.33;;;;;;;;5068279;27;113505;-74
2021/03/04 02:39:47;;;;;;;;;24.33;22.33;;;;;;;;5064641;27;114098;-74
2021/03/04 02:42:16;;;;;;;;;24.33;24.33;;;;;;;;5066694;27;112347;-75
2021/03/04 02:44:44;;;;;;;;;31.33;26.67;;;;;;;;5066252;27;113670;-75
2021/03/04 02:47:10;;;;;;;;;35.00;29.00;;;;;;;;5069634;27;114244;-75
2021/03/04 02:49:37;;;;;;;;;26.00;26.00;;;;;;;;5071648;27;112164;-75
2021/03/04 02:52:04;;;;;;;;;35.67;31.33;;;;;;;;5066771;27;114038;-75
2021/03/04 02:54:30;;;;;;;;;30.00;25.67;;;;;;;;5068499;27;113562;-74
2021/03/04 02:56:56;;;;;;;;;25.67;23.33;;;;;;;;5063709;27;113727;-74
2021/03/04 02:59:22;;;;;;;;;33.67;27.33;;;;;;;;5066960;27;114006;-74
2021/03/04 03:01:49;;;;;;;;;28.33;25.00;;;;;;;;5064267;27;111920;-73
2021/03/04 03:04:17;;;;;;;;;29.33;26.33;;;;;;;;5065855;27;114571;-74
2021/03/04 03:06:44;;;;;;;;;29.33;29.33;;;;;;;;5064888;27;114980;-74
2021/03/04 03:09:10;;;;;;;;;26.00;25.00;;;;;;;;5064631;27;112240;-74
2021/03/04 03:11:40;;;;;;;;;33.00;29.67;;;;;;;;5069853;27;113570;-74
2021/03/04 03:14:08;;;;;;;;;31.50;29.75;;;;;;;;5063649;27;111977;-74
2021/03/04 03:16:34;;;;;;;;;34.00;30.67;;;;;;;;5066261;27;113675;-74
2021/03/04 03:19:01;;;;;;;;;29.00;26.00;;;;;;;;5063000;27;114726;-74
2021/03/04 03:21:27;;;;;;;;;26.00;24.33;;;;;;;;5066669;27;111990;-74
2021/03/04 03:23:53;;;;;;;;;32.00;32.00;;;;;;;;5063077;27;113412;-74
2021/03/04 03:26:19;;;;;;;;;33.50;30.25;;;;;;;;5067082;27;114306;-75
2021/03/04 03:28:45;;;;;;;;;36.50;29.00;;;;;;;;5069629;27;111994;-74
2021/03/04 03:31:12;;;;;;;;;23.33;22.00;;;;;;;;5068651;27;113899;-74
2021/03/04 03:33:38;;;;;;;;;30.33;26.33;;;;;;;;5071018;27;112093;-74
2021/03/04 03:36:07;;;;;;;;;30.67;22.33;;;;;;;;5069531;27;113359;-75
2021/03/04 03:38:34;;;;;;;;;26.25;26.00;;;;;;;;5066396;27;114324;-75
2021/03/04 03:41:00;;;;;;;;;27.75;26.75;;;;;;;;5069892;27;111936;-75
2021/03/04 03:43:27;;;;;;;;;30.67;28.33;;;;;;;;5066771;27;114136;-75
2021/03/04 03:45:53;;;;;;;;;29.25;26.50;;;;;;;;5068503;27;113981;-75
2021/03/04 03:48:22;;;;;;;;;31.25;29.00;;;;;;;;5066773;27;112179;-75
2021/03/04 03:50:49;;;;;;;;;32.50;29.50;;;;;;;;5068487;27;113498;-75
2021/03/04 03:53:17;;;;;;;;;35.25;30.75;;;;;;;;5072757;27;114147;-75
2021/03/04 03:55:45;;;;;;;;;34.25;30.75;;;;;;;;5069729;27;113630;-74
2021/03/04 03:58:12;;;;;;;;;33.25;31.75;;;;;;;;5067176;27;114146;-74
2021/03/04 04:00:38;;;;;;;;;40.75;30.50;;;;;;;;5066928;27;112254;-74
2021/03/04 04:03:05;;;;;;;;;29.00;28.25;;;;;;;;5068599;27;113429;-74
2021/03/04 04:05:31;;;;;;;;;33.75;30.00;;;;;;;;5065673;27;114452;-75
2021/03/04 04:07:59;;;;;;;;;32.00;29.00;;;;;;;;5065666;27;112059;-74
2021/03/04 04:10:26;;;;;;;;;29.00;28.25;;;;;;;;5068562;27;113986;-74
2021/03/04 04:12:52;;;;;;;;;32.75;31.50;;;;;;;;5065660;27;113815;-74
2021/03/04 04:15:19;;;;;;;;;26.75;25.00;;;;;;;;5071991;27;112328;-75
2021/03/04 04:17:45;;;;;;;;;32.75;29.75;;;;;;;;5066133;27;114638;-74
2021/03/04 04:20:11;;;;;;;;;37.50;31.50;;;;;;;;5067033;27;112238;-75
2021/03/04 04:22:37;;;;;;;;;33.25;30.00;;;;;;;;5068738;27;114618;-75
2021/03/04 04:25:04;;;;;;;;;35.00;32.25;;;;;;;;5064837;27;114646;-74
2021/03/04 04:27:31;;;;;;;;;25.75;24.25;;;;;;;;5069832;27;111929;-74
2021/03/04 04:29:57;;;;;;;;;33.50;29.25;;;;;;;;5065236;27;113976;-74
2021/03/04 04:32:23;;;;;;;;;20.50;20.50;;;;;;;;5067764;27;113913;-75
2021/03/04 04:34:49;;;;;;;;;29.25;25.50;;;;;;;;5065689;27;111894;-74
2021/03/04 04:37:15;;;;;;;;;30.50;28.25;;;;;;;;5070778;27;113365;-74
2021/03/04 04:39:41;;;;;;;;;32.75;29.50;;;;;;;;5067472;27;112308;-74
2021/03/04 04:42:07;;;;;;;;;25.50;21.25;;;;;;;;5066052;27;113641;-74
2021/03/04 04:44:34;;;;;;;;;33.25;28.50;;;;;;;;5067750;27;114213;-74
2021/03/04 04:47:00;;;;;;;;;30.50;27.75;;;;;;;;5065570;27;111897;-74
2021/03/04 04:49:26;;;;;;;;;26.25;24.75;;;;;;;;5068477;27;113461;-74
2021/03/04 04:51:52;;;;;;;;;33.50;29.25;;;;;;;;5068833;27;113818;-74
2021/03/04 04:54:18;;;;;;;;;26.50;26.50;;;;;;;;5066583;27;111854;-74
2021/03/04 04:56:44;;;;;;;;;27.25;26.25;;;;;;;;5066832;27;113475;-74
2021/03/04 04:59:10;;;;;;;;;29.50;27.50;;;;;;;;5069634;27;114317;-74
2021/03/04 05:01:37;;;;;;;;;28.00;24.75;;;;;;;;5067225;27;113885;-74
2021/03/04 05:04:03;;;;;;;;;39.75;31.75;;;;;;;;5063928;27;114187;-74
2021/03/04 05:06:29;;;;;;;;;37.75;30.25;;;;;;;;5068744;27;111837;-75
2021/03/04 05:08:55;;;;;;;;;24.50;21.50;;;;;;;;5065601;27;113408;-75
2021/03/04 05:11:21;;;;;;;;;31.00;27.75;;;;;;;;5067433;27;114346;-75
2021/03/04 05:13:47;;;;;;;;;28.75;26.00;;;;;;;;5066816;27;112077;-76
2021/03/04 05:16:13;;;;;;;;;25.75;24.50;;;;;;;;5066560;27;113424;-75
2021/03/04 05:18:40;;;;;;;;;36.25;25.75;;;;;;;;5068192;27;114152;-76
2021/03/04 05:21:06;;;;;;;;;29.00;27.25;;;;;;;;5069651;27;112084;-75
2021/03/04 05:23:32;;;;;;;;;27.00;25.25;;;;;;;;5068225;27;117741;-75
2021/03/04 05:25:58;;;;;;;;;36.50;28.00;;;;;;;;5065362;27;111910;-76
2021/03/04 05:28:24;;;;;;;;;33.75;31.25;;;;;;;;5068674;27;113751;-76
2021/03/04 05:30:52;;;;;;;;;30.75;27.25;;;;;;;;5065191;27;114288;-76
2021/03/04 05:33:18;;;;;;;;;31.25;27.75;;;;;;;;5066827;27;112901;-76
2021/03/04 05:35:45;;;;;;;;;31.50;28.25;;;;;;;;5069081;27;114111;-76
2021/03/04 05:38:11;;;;;;;;;30.75;26.25;;;;;;;;5076295;27;113933;-76
2021/03/04 05:40:38;;;;;;;;;36.50;35.00;;;;;;;;5072127;27;111998;-75
2021/03/04 05:43:04;;;;;;;;;27.00;27.00;;;;;;;;5067509;27;114113;-76
2021/03/04 05:45:31;;;;;;;;;34.25;31.50;;;;;;;;5064371;27;111915;-76
2021/03/04 05:47:57;;;;;;;;;29.75;27.00;;;;;;;;5066248;27;113434;-74
2021/03/04 05:50:26;;;;;;;;;27.00;26.25;;;;;;;;5063646;27;114434;-75
2021/03/04 05:52:55;;;;;;;;;32.75;29.25;;;;;;;;5070426;27;112042;-74
2021/03/04 05:55:21;;;;;;;;;35.75;27.50;;;;;;;;5065361;27;113536;-75
2021/03/04 05:57:50;;;;;;;;;25.50;25.25;;;;;;;;5064934;27;114375;-75
2021/03/04 06:00:17;;;;;;;;;28.50;26.50;;;;;;;;5067194;27;112264;-74
2021/03/04 06:02:43;;;;;;;;;29.25;28.25;;;;;;;;5070058;27;113744;-74
2021/03/04 06:05:12;;;;;;;;;34.25;29.75;;;;;;;;5066786;27;112074;-75
2021/03/04 06:07:38;;;;;;;;;28.25;25.25;;;;;;;;5063835;27;114075;-74
2021/03/04 06:10:06;;;;;;;;;29.75;27.00;;;;;;;;5066557;27;114089;-73
2021/03/04 06:12:32;;;;;;;;;31.00;30.00;;;;;;;;5067395;27;111789;-74
2021/03/04 06:15:00;;;;;;;;;37.00;32.50;;;;;;;;5062762;27;117122;-76
2021/03/04 06:17:26;;;;;;;;;34.75;30.00;;;;;;;;5063776;27;114262;-73
2021/03/04 06:19:52;;;;;;;;;35.25;30.00;;;;;;;;5066215;27;112370;-74
2021/03/04 06:22:25;;;;;;;;;39.25;31.50;;;;;;;;5065723;27;113486;-74
2021/03/04 06:24:51;;;;;;;;;29.75;28.75;;;;;;;;5068909;27;114558;-75
2021/03/04 06:27:24;;;;;;;;;31.50;27.00;;;;;;;;5066659;27;114574;-76
2021/03/04 06:29:54;;;;;;;;;41.00;29.00;;;;;;;;5067885;27;114129;-74
2021/03/04 06:32:22;;;;;;;;;31.00;28.50;;;;;;;;5070352;27;111885;-78
2021/03/04 06:34:49;;;;;;;;;35.00;31.00;;;;;;;;5066395;27;114517;-76
2021/03/04 06:37:14;;;;;;;;;42.00;33.00;;;;;;;;5065438;27;114369;-74
2021/03/04 06:39:42;;;;;;;;;34.25;30.50;;;;;;;;5067914;27;111965;-74
2021/03/04 06:42:08;;;;;;;;;34.50;32.25;;;;;;;;5067647;27;113865;-75
2021/03/04 06:44:42;;;;;;;;;38.25;33.50;;;;;;;;5062532;27;114080;-75
2021/03/04 06:47:08;;;;;;;;;32.75;32.25;;;;;;;;5064544;27;112200;-74
2021/03/04 06:49:38;;;;;;;;;40.25;37.25;;;;;;;;5064817;27;116273;-78
2021/03/04 06:52:04;;;;;;;;;39.00;35.00;;;;;;;;5061195;27;112377;-74
2021/03/04 06:54:30;;;;;;;;;37.75;33.25;;;;;;;;5062071;27;114306;-73
2021/03/04 06:56:56;;;;;;;;;37.00;34.00;;;;;;;;5063402;27;115117;-74
2021/03/04 06:59:22;;;;;;;;;41.75;40.00;;;;;;;;5062358;27;112308;-74
2021/03/04 07:01:49;;;;;;;;;37.00;35.50;;;;;;;;5064658;27;113523;-80
2021/03/04 07:04:16;;;;;;;;;42.50;35.00;;;;;;;;5066994;27;114607;-74
2021/03/04 07:06:45;;;;;;;;;39.00;33.50;;;;;;;;5062205;27;112977;-85
2021/03/04 07:09:11;;;;;;;;;35.25;33.25;;;;;;;;5072271;27;113593;-79
2021/03/04 07:11:37;;;;;;;;;40.25;38.50;;;;;;;;5066793;27;111834;-78
2021/03/04 07:14:04;;;;;;;;;41.00;39.50;;;;;;;;5069745;27;114152;-75
2021/03/04 07:16:33;;;;;;;;;44.50;41.00;;;;;;;;5066378;27;114063;-84
2021/03/04 07:19:00;;;;;;;;;39.00;36.50;;;;;;;;5070235;27;112047;-74
2021/03/04 07:21:27;;;;;;;;;43.50;39.75;;;;;;;;5069039;27;114065;-77
2021/03/04 07:23:53;;;;;;;;;42.25;36.25;;;;;;;;5064018;27;112778;-76
2021/03/04 07:26:19;;;;;;;;;40.50;38.50;;;;;;;;5078527;27;112257;-76
2021/03/04 07:28:46;;;;;;;;;52.00;39.00;;;;;;;;5076876;27;113968;-77
2021/03/04 07:31:13;;;;;;;;;44.25;38.75;;;;;;;;5080645;27;114038;-75
2021/03/04 07:33:43;;;;;;;;;47.00;42.75;;;;;;;;5075356;27;113768;-75
2021/03/04 07:36:10;;;;;;;;;52.00;43.25;;;;;;;;5076402;27;114213;-75
2021/03/04 07:38:37;;;;;;;;;46.50;41.75;;;;;;;;5077885;27;112319;-74
2021/03/04 07:41:03;;;;;;;;;47.75;43.00;;;;;;;;5077361;27;113771;-75
2021/03/04 07:43:29;;;;;;;;;50.25;38.75;;;;;;;;5073505;27;114153;-75
2021/03/04 07:45:58;;;;;;;;;52.00;44.25;;;;;;;;5077264;27;112221;-75
2021/03/04 07:48:24;;;;;;;;;57.50;44.75;;;;;;;;5067206;27;114022;-75
2021/03/04 07:50:57;;;;;;;;;48.75;44.50;;;;;;;;5071187;27;113764;-75
2021/03/04 07:53:24;;;;;;;;;53.25;44.75;;;;;;;;5067157;27;114106;-74
2021/03/04 07:55:51;;;;;;;;;44.00;40.50;;;;;;;;5066940;27;114171;-75
2021/03/04 07:58:17;;;;;;;;;52.00;44.50;;;;;;;;5067946;27;111824;-73
2021/03/04 08:00:43;;;;;;;;;44.25;40.50;;;;;;;;5067109;27;113956;-73
2021/03/04 08:03:09;;;;;;;;;49.50;41.25;;;;;;;;5073545;27;114485;-75
2021/03/04 08:05:36;;;;;;;;;55.75;44.25;;;;;;;;5073411;27;112045;-77
2021/03/04 08:08:09;;;;;;;;;41.25;40.00;;;;;;;;5069781;27;113208;-77
2021/03/04 08:10:43;;;;;;;;;54.00;43.75;;;;;;;;5065883;27;114204;-78
2021/03/04 08:13:09;;;;;;;;;54.50;46.25;;;;;;;;5073290;27;113193;-79
2021/03/04 08:15:35;;;;;;;;;54.25;45.50;;;;;;;;5068935;27;114223;-77
2021/03/04 08:18:02;;;;;;;;;56.00;46.67;;;;;;;;5065720;27;111935;-81
2021/03/04 08:20:28;;;;;;;;;52.67;43.00;;;;;;;;5070127;27;114152;-81
2021/03/04 08:22:55;;;;;;;;;55.00;43.33;;;;;;;;5065969;27;114220;-79
2021/03/04 08:25:22;;;;;;;;;52.33;42.67;;;;;;;;5067941;27;111842;-80
2021/03/04 08:27:50;;;;;;;;;50.67;41.67;;;;;;;;5067587;27;113482;-81
2021/03/04 08:30:25;;;;;;;;;54.00;44.00;;;;;;;;5066357;27;114107;-78
2021/03/04 08:32:52;;;;;;;;;50.33;41.00;;;;;;;;5066048;27;112115;-78
2021/03/04 08:35:19;;;;;;;;;47.00;37.67;;;;;;;;5070714;27;113706;-78
2021/03/04 08:37:45;;;;;;;;;43.75;37.50;;;;;;;;5065084;27;112428;-77
2021/03/04 08:40:11;;;;;;;;;42.00;36.50;;;;;;;;5068339;27;113989;-78
2021/03/04 08:42:37;;;;;;;;;49.25;40.25;;;;;;;;5068766;27;114127;-77
2021/03/04 08:45:05;;;;;;;;;32.67;31.67;;;;;;;;5074225;27;112305;-77
2021/03/04 08:47:31;;;;;;;;;53.33;43.33;;;;;;;;5077327;27;113856;-76
2021/03/04 08:49:58;;;;;;;;;52.67;43.33;;;;;;;;5075893;27;115105;-76
2021/03/04 08:52:24;;;;;;;;;52.33;42.33;;;;;;;;5077349;27;112768;-75
2021/03/04 08:54:51;;;;;;;;;50.67;40.33;;;;;;;;5076709;27;113827;-75
2021/03/04 08:57:21;;;;;;;;;52.33;41.67;;;;;;;;5080569;27;114089;-75
2021/03/04 08:59:47;;;;;;;;;55.00;44.00;;;;;;;;5075214;27;113904;-75
2021/03/04 09:02:15;;;;;;;;;51.00;42.00;;;;;;;;5076451;27;114042;-75
2021/03/04 09:04:41;;;;;;;;;50.67;42.33;;;;;;;;5076442;27;112194;-76
2021/03/04 09:07:07;;;;;;;;;56.67;44.00;;;;;;;;5077057;27;113455;-76
2021/03/04 09:09:33;;;;;;;;;52.00;41.75;;;;;;;;5076422;27;114682;-76
2021/03/04 09:11:59;;;;;;;;;45.50;38.00;;;;;;;;5076258;27;112408;-75
2021/03/04 09:14:26;;;;;;;;;51.00;41.25;;;;;;;;5077021;27;113582;-76
2021/03/04 09:16:52;;;;;;;;;46.25;39.50;;;;;;;;5077154;27;114523;-77
2021/03/04 09:19:26;;;;;;;;;36.75;33.00;;;;;;;;5080504;27;112238;-75
2021/03/04 09:21:52;;;;;;;;;45.50;39.25;;;;;;;;5074298;27;114123;-76
2021/03/04 09:24:18;;;;;;;;;47.25;38.50;;;;;;;;5075390;27;112562;-76
2021/03/04 09:26:44;;;;;;;;;46.00;38.00;;;;;;;;5076121;27;113419;-77
2021/03/04 09:29:11;;;;;;;;;42.50;36.00;;;;;;;;5075100;27;113957;-77
2021/03/04 09:31:36;;;;;;;;;45.00;36.50;;;;;;;;5062305;27;112134;-77
2021/03/04 09:34:03;;;;;;;;;42.00;35.25;;;;;;;;5068135;27;113777;-75
2021/03/04 09:36:31;;;;;;;;;41.50;34.50;;;;;;;;5064583;27;114343;-75
2021/03/04 09:38:57;;;;;;;;;44.00;35.00;;;;;;;;5067286;27;112104;-76
2021/03/04 09:41:24;;;;;;;;;41.50;36.50;;;;;;;;5068857;27;113524;-77
2021/03/04 09:43:51;;;;;;;;;41.25;35.75;;;;;;;;5065432;27;111868;-76
2021/03/04 09:46:27;;;;;;;;;44.00;34.50;;;;;;;;5076324;27;113712;-76
2021/03/04 09:48:53;;;;;;;;;41.75;34.50;;;;;;;;5074898;27;114256;-76
2021/03/04 09:51:19;;;;;;;;;44.00;36.00;;;;;;;;5070544;27;113356;-77
2021/03/04 09:53:47;;;;;;;;;40.50;35.00;;;;;;;;5075702;27;112994;-75
2021/03/04 09:56:19;;;;;;;;;38.50;31.50;;;;;;;;5075624;27;114541;-75
2021/03/04 09:58:45;;;;;;;;;37.50;32.50;;;;;;;;5073276;27;111882;-76
2021/03/04 10:01:11;;;;;;;;;38.25;33.50;;;;;;;;5079174;27;113587;-78
2021/03/04 10:03:38;;;;;;;;;37.25;33.25;;;;;;;;5076158;27;111997;-77
2021/03/04 10:06:06;;;;;;;;;39.25;33.75;;;;;;;;5069133;27;112629;-74
2021/03/04 10:08:38;;;;;;;;;35.75;32.25;;;;;;;;5071424;27;114197;-75
2021/03/04 10:11:05;;;;;;;;;34.00;30.75;;;;;;;;5074315;27;111870;-78
2021/03/04 10:13:31;;;;;;;;;34.75;31.75;;;;;;;;5073757;27;114111;-75
2021/03/04 10:16:08;;;;;;;;;38.75;33.50;;;;;;;;5075417;27;114294;-75
2021/03/04 10:18:34;;;;;;;;;41.00;31.67;;;;;;;;5075906;27;111993;-74
2021/03/04 10:21:01;;;;;;;;;34.67;29.67;;;;;;;;5073645;27;113473;-74
2021/03/04 10:23:27;;;;;;;;;35.33;31.33;;;;;;;;5079068;27;114516;-73
2021/03/04 18:54:33;;;;;;;;;34.00;29.00;;;;;;;;5072736;27;861487;-88
2021/03/04 18:56:59;;;;;;;;;26.00;25.33;;;;;;;;5081598;27;113974;-75
2021/03/04 18:59:25;;;;;;;;;31.67;27.33;;;;;;;;5079412;27;112729;-78
2021/03/04 19:01:51;;;;;;;;;27.00;26.00;;;;;;;;5082857;27;113546;-83
2021/03/04 19:04:17;;;;;;;;;31.67;26.00;;;;;;;;5089377;27;114091;-79
2021/03/04 19:06:43;;;;;;;;;28.33;24.33;;;;;;;;5084659;27;114094;-80
2021/03/04 19:09:09;;;;;;;;;33.25;28.25;;;;;;;;5076413;27;112342;-83
2021/03/04 19:11:36;;;;;;;;;31.67;27.67;;;;;;;;5084677;27;113711;-75
2021/03/04 19:14:02;;;;;;;;;23.00;21.25;;;;;;;;5072594;27;112355;-73
2021/03/04 19:16:30;;;;;;;;;33.50;28.75;;;;;;;;5078148;27;114396;-71
2021/03/04 19:18:56;;;;;;;;;30.67;27.67;;;;;;;;5079104;27;113050;-72
2021/03/04 19:21:22;;;;;;;;;32.33;30.00;;;;;;;;5082776;27;113617;-76
2021/03/04 19:23:48;;;;;;;;;32.50;28.50;;;;;;;;5078009;27;113988;-73
2021/03/04 19:26:14;;;;;;;;;28.75;27.00;;;;;;;;5081044;27;111887;-72
2021/03/04 19:28:41;;;;;;;;;30.25;26.25;;;;;;;;5080256;27;113596;-73
2021/03/04 19:31:07;;;;;;;;;28.25;25.75;;;;;;;;5075252;27;113213;-74
2021/03/04 19:33:33;;;;;;;;;29.50;27.25;;;;;;;;5084367;27;112250;-76
2021/03/04 19:35:59;;;;;;;;;31.75;28.75;;;;;;;;5084417;27;113797;-74
2021/03/04 19:38:25;;;;;;;;;29.00;28.00;;;;;;;;5079874;27;112214;-74
2021/03/04 19:40:51;;;;;;;;;30.75;27.25;;;;;;;;5079467;27;113352;-73
2021/03/04 19:43:17;;;;;;;;;30.67;29.67;;;;;;;;5083635;27;114215;-72
2021/03/04 19:45:44;;;;;;;;;32.67;29.00;;;;;;;;5088507;27;112127;-72
2021/03/04 19:48:10;;;;;;;;;33.33;32.00;;;;;;;;5077271;27;112620;-73
2021/03/04 19:53:09;;;;;;;;;34.67;33.67;;;;;;;;4999502;28;114404;-72
2021/03/04 19:55:36;;;;;;;;;25.67;22.33;;;;;;;;4995938;28;113543;-74
2021/03/04 19:58:02;;;;;;;;;34.67;31.00;;;;;;;;5000049;27;114047;-74
2021/03/04 20:00:28;;;;;;;;;35.33;33.00;;;;;;;;5001072;28;113452;-71
2021/03/04 20:02:55;;;;;;;;;44.33;36.00;;;;;;;;4995114;28;114241;-72
2021/03/04 20:05:21;;;;;;;;;40.00;31.33;;;;;;;;4988170;28;112536;-73
2021/03/04 20:07:47;;;;;;;;;25.00;25.00;;;;;;;;4979618;28;112425;-72
2021/03/04 20:10:13;;;;;;;;;41.33;38.00;;;;;;;;4979967;28;114089;-71
2021/03/04 20:12:40;;;;;;;;;38.67;34.33;;;;;;;;4986178;28;111878;-71
2021/03/04 20:15:07;;;;;;;;;34.67;32.00;;;;;;;;5005262;28;113594;-71
2021/03/04 20:17:33;;;;;;;;;32.67;29.33;;;;;;;;4997443;28;114089;-70
2021/03/04 20:20:00;;;;;;;;;36.00;33.00;;;;;;;;4994236;28;112898;-70
2021/03/04 20:22:26;;;;;;;;;38.67;33.33;;;;;;;;4994557;28;114605;-70
2021/03/04 20:24:52;;;;;;;;;41.67;35.33;;;;;;;;4999925;28;112640;-70
2021/03/04 20:27:18;;;;;;;;;39.00;34.67;;;;;;;;5002032;28;113438;-71
2021/03/04 20:29:44;;;;;;;;;37.33;30.00;;;;;;;;4998483;28;114101;-73
2021/03/04 20:32:11;;;;;;;;;41.00;35.67;;;;;;;;5004622;28;112137;-74
2021/03/04 20:34:38;;;;;;;;;40.00;35.00;;;;;;;;5001465;28;113529;-74
2021/03/04 20:37:05;;;;;;;;;42.67;34.00;;;;;;;;5000840;28;114127;-72
2021/03/04 20:39:31;;;;;;;;;40.67;35.00;;;;;;;;4983802;28;111910;-73
2021/03/04 20:41:57;;;;;;;;;42.33;36.00;;;;;;;;4989134;28;114085;-72
2021/03/04 20:44:23;;;;;;;;;40.67;35.00;;;;;;;;4983257;28;112526;-71
2021/03/04 20:46:49;;;;;;;;;37.00;32.33;;;;;;;;4988796;28;113462;-72
2021/03/04 20:49:16;;;;;;;;;42.67;35.33;;;;;;;;4984868;28;113511;-76
2021/03/04 20:51:42;;;;;;;;;40.33;35.00;;;;;;;;4987670;28;112303;-73
2021/03/04 20:54:09;;;;;;;;;36.67;35.00;;;;;;;;4985238;28;113633;-71
2021/03/04 20:56:35;;;;;;;;;42.33;33.33;;;;;;;;4998307;28;114310;-74
2021/03/04 20:59:01;;;;;;;;;39.67;37.33;;;;;;;;5004727;28;112255;-71
2021/03/04 21:01:27;;;;;;;;;39.33;34.67;;;;;;;;5004488;28;113999;-72
2021/03/04 21:03:53;;;;;;;;;40.67;35.00;;;;;;;;5006496;27;112160;-72
2021/03/04 21:06:20;;;;;;;;;43.33;37.33;;;;;;;;5003426;28;113778;-70
2021/03/04 21:08:46;;;;;;;;;39.67;35.67;;;;;;;;5003318;28;114224;-70
2021/03/04 21:11:13;;;;;;;;;31.67;30.00;;;;;;;;5002966;28;112823;-70
2021/03/04 21:13:39;;;;;;;;;35.00;33.33;;;;;;;;4998762;28;113592;-70
2021/03/04 21:16:05;;;;;;;;;39.00;34.67;;;;;;;;4988392;28;113810;-70
2021/03/04 21:18:31;;;;;;;;;38.00;35.00;;;;;;;;4996697;28;113017;-70
2021/03/04 21:20:57;;;;;;;;;40.33;35.00;;;;;;;;5006168;28;114329;-70
2021/03/04 21:23:24;;;;;;;;;38.67;35.33;;;;;;;;4984987;28;115311;-70
2021/03/04 21:25:50;;;;;;;;;34.00;31.67;;;;;;;;4986743;28;113517;-73
2021/03/04 21:28:17;;;;;;;;;35.67;33.00;;;;;;;;4985283;28;114387;-70
2021/03/04 21:30:43;;;;;;;;;41.00;34.00;;;;;;;;4983446;28;112915;-70
2021/03/04 21:33:09;;;;;;;;;36.67;30.67;;;;;;;;4994843;28;113670;-69
2021/03/04 21:35:35;;;;;;;;;40.33;34.00;;;;;;;;5003373;28;113881;-70
2021/03/04 21:38:01;;;;;;;;;31.00;29.67;;;;;;;;5001232;27;112244;-70
2021/03/04 21:40:27;;;;;;;;;37.33;32.00;;;;;;;;5002757;28;113940;-70
2021/03/04 21:42:53;;;;;;;;;35.00;31.67;;;;;;;;4998537;28;114896;-70
2021/03/04 21:45:21;;;;;;;;;44.00;37.00;;;;;;;;5005990;28;112431;-70
2021/03/04 21:47:47;;;;;;;;;41.00;34.67;;;;;;;;4981914;28;114101;-70
2021/03/04 21:50:13;;;;;;;;;36.67;34.33;;;;;;;;4981837;28;112824;-69
2021/03/04 21:52:39;;;;;;;;;34.00;30.67;;;;;;;;4983194;28;113409;-69
2021/03/04 21:55:05;;;;;;;;;39.33;33.67;;;;;;;;4982861;28;114329;-70
2021/03/04 21:57:31;;;;;;;;;42.00;35.67;;;;;;;;4987348;28;112983;-69
2021/03/04 21:59:57;;;;;;;;;39.00;34.67;;;;;;;;4973500;28;112925;-70
2021/03/04 22:02:24;;;;;;;;;41.00;35.33;;;;;;;;4984166;28;114270;-70
2021/03/04 22:04:50;;;;;;;;;46.33;38.33;;;;;;;;4980748;28;111994;-70
2021/03/04 22:07:17;;;;;;;;;38.00;34.33;;;;;;;;4987286;28;113453;-70
2021/03/04 22:09:43;;;;;;;;;42.33;38.00;;;;;;;;4982216;28;112609;-70
2021/03/04 22:12:09;;;;;;;;;38.00;34.67;;;;;;;;4983210;28;113483;-69
2021/03/04 22:14:36;;;;;;;;;49.67;37.33;;;;;;;;4983496;28;114865;-70
2021/03/04 22:17:02;;;;;;;;;46.33;38.00;;;;;;;;4982262;28;111952;-69
2021/03/04 22:19:29;;;;;;;;;39.67;35.33;;;;;;;;4985280;28;113563;-69
2021/03/04 22:21:55;;;;;;;;;40.67;38.00;;;;;;;;4978446;28;113208;-70
2021/03/04 22:24:20;;;;;;;;;40.00;36.67;;;;;;;;4984765;28;112070;-69
2021/03/04 22:26:47;;;;;;;;;32.33;32.33;;;;;;;;4981588;28;113862;-70
2021/03/04 22:29:13;;;;;;;;;39.67;34.67;;;;;;;;4987334;28;114345;-70
2021/03/04 22:31:39;;;;;;;;;39.33;37.00;;;;;;;;4982908;28;113733;-70